Hyundai Forward — 3EJY9 — position and weather

sailwx.info

Track history (hours):
 
Tides and Currents Weather Stations Pressure Air Temp Water Temp Dewpoint Dewpoint Depression Visibility Wind Speed Wind Dir Waves Ship Positions

Hyundai Forward

Last reported at 2017-Feb-15 20:31 UTC. Time now 2017-Feb-25 09:14 UTC.
Position N 22°24' E 120°09'.
Warning: this ship's position is 9 days out of date.

Length 295 m; draft 9.8 m.

Type: Cargo ship. MMSI: 372652000.

Date/timePositionNaut miles runAvg speedWind from/ knotsBaromVisibWave heightAir tempDewpointWater temp
2017-Feb-15 20:31N 22°24' E 120°09'1212.1
2017-Feb-15 19:33N 22°33' E 120°17'2 1.7
2017-Feb-15 18:23N 22°34' E 120°19'0 0.0
2017-Feb-15 17:32N 22°34' E 120°19'0 0.0
2017-Feb-15 16:32N 22°34' E 120°19'0 0.0
2017-Feb-15 15:32N 22°34' E 120°19'0 0.0
2017-Feb-15 14:32N 22°34' E 120°19'0 0.0
2017-Feb-15 13:23N 22°34' E 120°19'0 0.0
2017-Feb-15 12:32N 22°34' E 120°19'0 0.0
2017-Feb-15 11:32N 22°34' E 120°19'2 2.1
2017-Feb-15 10:33N 22°33' E 120°17'4 4.2
2017-Feb-15 09:33N 22°31' E 120°13'9 9.1
2017-Feb-15 08:33N 22°36' E 120°04'1313.1
2017-Feb-15 07:33N 22°48' E 119°58'51611.5
2017-Feb-13 10:31N 30°56' E 123°06'2612.3
2017-Feb-13 08:24N 31°06' E 122°38'1112.7
2017-Feb-13 07:33N 31°06' E 122°25'1312.7
2017-Feb-13 06:33N 31°10' E 122°11'1212.3
2017-Feb-13 05:34N 31°15' E 121°58'1413.5
2017-Feb-13 04:33N 31°19' E 121°43'7 7.4
2017-Feb-13 03:34N 31°22' E 121°35'0 0.0
2017-Feb-13 02:33N 31°22' E 121°35'0 0.0
2017-Feb-13 01:33N 31°22' E 121°35'0 0.0
2017-Feb-13 00:33N 31°22' E 121°35'0 0.0
2017-Feb-12 23:33N 31°22' E 121°35'0 0.0
2017-Feb-12 22:24N 31°22' E 121°35'0 0.0
2017-Feb-12 21:33N 31°22' E 121°35'0 0.0
2017-Feb-12 20:33N 31°22' E 121°35'0 0.0
2017-Feb-12 19:33N 31°22' E 121°35'0 0.0
2017-Feb-12 18:33N 31°22' E 121°35'2 1.7
2017-Feb-12 17:33N 31°24' E 121°34'8 8.2
2017-Feb-12 16:33N 31°20' E 121°42'10 9.9
2017-Feb-12 15:33N 31°16' E 121°53'1110.8
2017-Feb-12 14:33N 31°14' E 122°06'1110.8
2017-Feb-12 13:33N 31°08' E 122°16'1111.0
2017-Feb-12 12:33N 31°07' E 122°29'11 8.8
2017-Feb-12 11:19N 31°08' E 122°41'0 0.3
2017-Feb-12 10:26N 31°08' E 122°42'0 0.0
2017-Feb-12 08:20N 31°08' E 122°42'0 0.1
2017-Feb-12 07:29N 31°08' E 122°42'0 0.1
2017-Feb-12 06:32N 31°08' E 122°42'0 0.1
2017-Feb-12 05:08N 31°08' E 122°41'0 0.1
2017-Feb-12 04:26N 31°08' E 122°41'0 0.1
2017-Feb-12 00:05N 31°08' E 122°41'0 0.3
2017-Feb-11 23:33N 31°08' E 122°41'9 9.4
2017-Feb-11 22:33N 31°07' E 122°52'  
2017-Feb-06 03:25N 38°15' E 121°34'1618.9
2017-Feb-06 02:33N 38°24' E 121°17'1918.8
2017-Feb-06 01:33N 38°32' E 120°55'2017.5
2017-Feb-06 00:24N 38°35' E 120°30'  
Track history (hours):
 
Tides and Currents Weather Stations Pressure Air Temp Water Temp Dewpoint Dewpoint Depression Visibility Wind Speed Wind Dir Waves Ship Positions

Hyundai Forward

Last reported at 2017-Feb-15 20:31 UTC. Time now 2017-Feb-25 09:14 UTC.
Position N 22°24' E 120°09'.
Warning: this ship's position is 9 days out of date.

Length 295 m; draft 9.8 m.

Type: Cargo ship. MMSI: 372652000.

Date/timePositionNaut miles runAvg speedWind from/ knotsBaromVisibWave heightAir tempDewpointWater temp
2017-Feb-15 20:31N 22°24' E 120°09'1212.1
2017-Feb-15 19:33N 22°33' E 120°17'2 1.7
2017-Feb-15 18:23N 22°34' E 120°19'0 0.0
2017-Feb-15 17:32N 22°34' E 120°19'0 0.0
2017-Feb-15 16:32N 22°34' E 120°19'0 0.0
2017-Feb-15 15:32N 22°34' E 120°19'0 0.0
2017-Feb-15 14:32N 22°34' E 120°19'0 0.0
2017-Feb-15 13:23N 22°34' E 120°19'0 0.0
2017-Feb-15 12:32N 22°34' E 120°19'0 0.0
2017-Feb-15 11:32N 22°34' E 120°19'2 2.1
2017-Feb-15 10:33N 22°33' E 120°17'4 4.2
2017-Feb-15 09:33N 22°31' E 120°13'9 9.1
2017-Feb-15 08:33N 22°36' E 120°04'1313.1
2017-Feb-15 07:33N 22°48' E 119°58'51611.5
2017-Feb-13 10:31N 30°56' E 123°06'2612.3
2017-Feb-13 08:24N 31°06' E 122°38'1112.7
2017-Feb-13 07:33N 31°06' E 122°25'1312.7
2017-Feb-13 06:33N 31°10' E 122°11'1212.3
2017-Feb-13 05:34N 31°15' E 121°58'1413.5
2017-Feb-13 04:33N 31°19' E 121°43'7 7.4
2017-Feb-13 03:34N 31°22' E 121°35'0 0.0
2017-Feb-13 02:33N 31°22' E 121°35'0 0.0
2017-Feb-13 01:33N 31°22' E 121°35'0 0.0
2017-Feb-13 00:33N 31°22' E 121°35'0 0.0
2017-Feb-12 23:33N 31°22' E 121°35'0 0.0
2017-Feb-12 22:24N 31°22' E 121°35'0 0.0
2017-Feb-12 21:33N 31°22' E 121°35'0 0.0
2017-Feb-12 20:33N 31°22' E 121°35'0 0.0
2017-Feb-12 19:33N 31°22' E 121°35'0 0.0
2017-Feb-12 18:33N 31°22' E 121°35'2 1.7
2017-Feb-12 17:33N 31°24' E 121°34'8 8.2
2017-Feb-12 16:33N 31°20' E 121°42'10 9.9
2017-Feb-12 15:33N 31°16' E 121°53'1110.8
2017-Feb-12 14:33N 31°14' E 122°06'1110.8
2017-Feb-12 13:33N 31°08' E 122°16'1111.0
2017-Feb-12 12:33N 31°07' E 122°29'11 8.8
2017-Feb-12 11:19N 31°08' E 122°41'0 0.3
2017-Feb-12 10:26N 31°08' E 122°42'0 0.0
2017-Feb-12 08:20N 31°08' E 122°42'0 0.1
2017-Feb-12 07:29N 31°08' E 122°42'0 0.1
2017-Feb-12 06:32N 31°08' E 122°42'0 0.1
2017-Feb-12 05:08N 31°08' E 122°41'0 0.1
2017-Feb-12 04:26N 31°08' E 122°41'0 0.1
2017-Feb-12 00:05N 31°08' E 122°41'0 0.3
2017-Feb-11 23:33N 31°08' E 122°41'9 9.4
2017-Feb-11 22:33N 31°07' E 122°52'  
2017-Feb-06 03:25N 38°15' E 121°34'1618.9
2017-Feb-06 02:33N 38°24' E 121°17'1918.8
2017-Feb-06 01:33N 38°32' E 120°55'2017.5
2017-Feb-06 00:24N 38°35' E 120°30'  

Dump ship's entire track history